Main page
METAR-TAF:

METAR-TAF

Airports :

Vadsø Airport

Vadsø, Norway

latitude: 70-04N, longitude: 029-51E, elevation: 3 m

Current weather observation

The report was made 40 minutes ago, at 21:50 UTC
Wind 15 kt from the West
Temperature 0°C
Humidity 86%
Pressure 959 hPa
Visibility 10 km or more
Few clouds at a height of 2000 ft
Scattered clouds at a height of 3000 ft
showers in vicinity

METAR: ENVD 172150Z 28015KT 9999 VCSH FEW020 SCT030 00/M02 Q0959

Time: 23:30 (22:30 UTC)

Forecast

The report was made 2 hours and 30 minutes ago, at 20:00 UTC
Forecast valid from 17 at 21 UTC to 17 at 24 UTC
Wind 18 kt from the West
Visibility 10 km or more
Scattered clouds at a height of 800 ft
Broken clouds at a height of 3000 ft
light snow showers
Temporary
from 17 at 21 UTC to 17 at 24 UTC
Visibility: 4000 m
Broken clouds at a height of 800 ft
light snow showers, Low drifting snow

TAF: ENVD 172000Z 1721/1724 28018KT 9999 -SHSN SCT008 BKN030 TEMPO 1721/1724 4000 -SHSN DRSN BKN008

Weather observations and forecasts of more than 4000 airports (METAR and TAF reports).

The available stations are represented by yellow and red dots on the map.

Hover mouse over dot to see the name of the station.

Then click to see weather observations and forecasts.

To change the map : click on the green buttons with a black cross to zoom in, on the green button with a dash to zoom out, or on the green arrows for adjacent maps.


METAR-TAF: